sensor_id;sensor_type;location;lat;lon;timestamp;temperature;humidity
20337;DHT22;10326;53.660;10.200;2023-05-07T00:00:50;13.10;78.90
20337;DHT22;10326;53.660;10.200;2023-05-07T00:03:18;13.20;78.80
20337;DHT22;10326;53.660;10.200;2023-05-07T00:05:45;13.10;78.80
20337;DHT22;10326;53.660;10.200;2023-05-07T00:08:13;13.10;78.90
20337;DHT22;10326;53.660;10.200;2023-05-07T00:10:42;13.20;78.80
20337;DHT22;10326;53.660;10.200;2023-05-07T00:13:10;13.10;78.70
20337;DHT22;10326;53.660;10.200;2023-05-07T00:15:37;13.10;78.70
20337;DHT22;10326;53.660;10.200;2023-05-07T00:18:04;13.10;78.60
20337;DHT22;10326;53.660;10.200;2023-05-07T00:20:32;13.10;78.60
20337;DHT22;10326;53.660;10.200;2023-05-07T00:22:59;13.10;78.60
20337;DHT22;10326;53.660;10.200;2023-05-07T00:25:28;13.10;78.60
20337;DHT22;10326;53.660;10.200;2023-05-07T00:27:57;13.10;78.60
20337;DHT22;10326;53.660;10.200;2023-05-07T00:30:29;13.10;78.50
20337;DHT22;10326;53.660;10.200;2023-05-07T00:32:56;13.10;78.60
20337;DHT22;10326;53.660;10.200;2023-05-07T00:35:23;13.10;78.70
20337;DHT22;10326;53.660;10.200;2023-05-07T00:37:51;13.10;78.70
20337;DHT22;10326;53.660;10.200;2023-05-07T00:40:18;13.10;78.70
20337;DHT22;10326;53.660;10.200;2023-05-07T00:42:45;13.00;78.70
20337;DHT22;10326;53.660;10.200;2023-05-07T00:45:16;13.00;78.70
20337;DHT22;10326;53.660;10.200;2023-05-07T00:47:44;13.00;78.80
20337;DHT22;10326;53.660;10.200;2023-05-07T00:50:11;13.10;78.80
20337;DHT22;10326;53.660;10.200;2023-05-07T00:52:39;13.10;78.80
20337;DHT22;10326;53.660;10.200;2023-05-07T00:55:07;13.10;78.80
20337;DHT22;10326;53.660;10.200;2023-05-07T00:57:36;13.10;78.80
20337;DHT22;10326;53.660;10.200;2023-05-07T01:00:06;13.10;78.80
20337;DHT22;10326;53.660;10.200;2023-05-07T01:02:36;13.10;78.70
20337;DHT22;10326;53.660;10.200;2023-05-07T01:05:05;13.10;78.70
20337;DHT22;10326;53.660;10.200;2023-05-07T01:07:34;13.10;78.70
20337;DHT22;10326;53.660;10.200;2023-05-07T01:10:03;13.10;79.20
20337;DHT22;10326;53.660;10.200;2023-05-07T01:12:32;13.00;78.60
20337;DHT22;10326;53.660;10.200;2023-05-07T01:15:00;13.00;78.50
20337;DHT22;10326;53.660;10.200;2023-05-07T01:17:27;13.00;78.60
20337;DHT22;10326;53.660;10.200;2023-05-07T01:19:56;13.00;78.70
20337;DHT22;10326;53.660;10.200;2023-05-07T01:22:29;13.00;78.60
20337;DHT22;10326;53.660;10.200;2023-05-07T01:24:58;13.00;78.70
20337;DHT22;10326;53.660;10.200;2023-05-07T01:27:29;13.00;78.70
20337;DHT22;10326;53.660;10.200;2023-05-07T01:29:56;13.00;78.70
20337;DHT22;10326;53.660;10.200;2023-05-07T01:32:27;13.00;78.70
20337;DHT22;10326;53.660;10.200;2023-05-07T01:35:00;13.00;78.70
20337;DHT22;10326;53.660;10.200;2023-05-07T01:37:29;13.00;78.70
20337;DHT22;10326;53.660;10.200;2023-05-07T01:39:56;13.00;78.70
20337;DHT22;10326;53.660;10.200;2023-05-07T01:42:24;13.00;78.70
20337;DHT22;10326;53.660;10.200;2023-05-07T01:44:51;13.00;78.70
20337;DHT22;10326;53.660;10.200;2023-05-07T01:47:19;13.00;78.70
20337;DHT22;10326;53.660;10.200;2023-05-07T01:49:47;13.00;78.70
20337;DHT22;10326;53.660;10.200;2023-05-07T01:52:15;13.00;78.70
20337;DHT22;10326;53.660;10.200;2023-05-07T01:54:44;13.00;78.70
20337;DHT22;10326;53.660;10.200;2023-05-07T01:57:11;13.00;78.80
20337;DHT22;10326;53.660;10.200;2023-05-07T01:59:39;13.00;78.70
20337;DHT22;10326;53.660;10.200;2023-05-07T02:02:06;13.00;78.60
20337;DHT22;10326;53.660;10.200;2023-05-07T02:04:36;13.00;78.70
20337;DHT22;10326;53.660;10.200;2023-05-07T02:07:03;13.00;78.70
20337;DHT22;10326;53.660;10.200;2023-05-07T02:09:30;12.90;78.60
20337;DHT22;10326;53.660;10.200;2023-05-07T02:11:59;12.90;78.60
20337;DHT22;10326;53.660;10.200;2023-05-07T02:14:27;12.90;78.60
20337;DHT22;10326;53.660;10.200;2023-05-07T02:16:54;12.90;78.70
20337;DHT22;10326;53.660;10.200;2023-05-07T02:19:22;12.90;78.70
20337;DHT22;10326;53.660;10.200;2023-05-07T02:21:49;12.90;78.80
20337;DHT22;10326;53.660;10.200;2023-05-07T02:24:22;12.90;78.90
20337;DHT22;10326;53.660;10.200;2023-05-07T02:26:50;12.90;79.00
20337;DHT22;10326;53.660;10.200;2023-05-07T02:29:18;12.90;78.90
20337;DHT22;10326;53.660;10.200;2023-05-07T02:31:46;12.90;79.00
20337;DHT22;10326;53.660;10.200;2023-05-07T02:34:17;12.90;78.90
20337;DHT22;10326;53.660;10.200;2023-05-07T02:36:44;12.90;78.90
20337;DHT22;10326;53.660;10.200;2023-05-07T02:39:16;12.90;78.70
20337;DHT22;10326;53.660;10.200;2023-05-07T02:41:43;12.90;78.70
20337;DHT22;10326;53.660;10.200;2023-05-07T02:44:10;12.90;78.70
20337;DHT22;10326;53.660;10.200;2023-05-07T02:46:40;12.90;78.70
20337;DHT22;10326;53.660;10.200;2023-05-07T02:49:10;12.90;78.70
20337;DHT22;10326;53.660;10.200;2023-05-07T02:51:37;12.90;78.60
20337;DHT22;10326;53.660;10.200;2023-05-07T02:54:10;12.90;78.60
20337;DHT22;10326;53.660;10.200;2023-05-07T02:56:37;12.90;78.60
20337;DHT22;10326;53.660;10.200;2023-05-07T02:59:04;12.90;78.60
20337;DHT22;10326;53.660;10.200;2023-05-07T03:01:36;12.80;78.50
20337;DHT22;10326;53.660;10.200;2023-05-07T03:04:07;12.90;78.50
20337;DHT22;10326;53.660;10.200;2023-05-07T03:06:34;12.90;78.40
20337;DHT22;10326;53.660;10.200;2023-05-07T03:09:02;12.80;78.40
20337;DHT22;10326;53.660;10.200;2023-05-07T03:11:30;12.80;78.60
20337;DHT22;10326;53.660;10.200;2023-05-07T03:13:58;12.80;78.50
20337;DHT22;10326;53.660;10.200;2023-05-07T03:16:25;12.80;78.50
20337;DHT22;10326;53.660;10.200;2023-05-07T03:18:52;12.80;78.50
20337;DHT22;10326;53.660;10.200;2023-05-07T03:21:20;12.80;78.50
20337;DHT22;10326;53.660;10.200;2023-05-07T03:23:48;12.80;78.50
20337;DHT22;10326;53.660;10.200;2023-05-07T03:26:15;12.80;78.50
20337;DHT22;10326;53.660;10.200;2023-05-07T03:28:44;12.80;78.40
20337;DHT22;10326;53.660;10.200;2023-05-07T03:31:13;12.80;78.40
20337;DHT22;10326;53.660;10.200;2023-05-07T03:33:50;12.80;78.50
20337;DHT22;10326;53.660;10.200;2023-05-07T03:36:21;12.80;78.60
20337;DHT22;10326;53.660;10.200;2023-05-07T03:38:49;12.80;78.40
20337;DHT22;10326;53.660;10.200;2023-05-07T03:41:20;12.80;78.30
20337;DHT22;10326;53.660;10.200;2023-05-07T03:43:47;12.80;78.30
20337;DHT22;10326;53.660;10.200;2023-05-07T03:46:14;12.80;78.40
20337;DHT22;10326;53.660;10.200;2023-05-07T03:48:42;12.80;78.30
20337;DHT22;10326;53.660;10.200;2023-05-07T03:51:10;12.80;78.30
20337;DHT22;10326;53.660;10.200;2023-05-07T03:53:39;12.80;78.30
20337;DHT22;10326;53.660;10.200;2023-05-07T03:56:06;12.80;78.30
20337;DHT22;10326;53.660;10.200;2023-05-07T03:58:37;12.80;78.40
20337;DHT22;10326;53.660;10.200;2023-05-07T04:01:08;12.80;78.30
20337;DHT22;10326;53.660;10.200;2023-05-07T04:03:35;12.80;78.20
20337;DHT22;10326;53.660;10.200;2023-05-07T04:06:03;12.80;78.10
20337;DHT22;10326;53.660;10.200;2023-05-07T04:08:34;12.80;78.10
20337;DHT22;10326;53.660;10.200;2023-05-07T04:11:04;12.80;78.30
20337;DHT22;10326;53.660;10.200;2023-05-07T04:13:33;12.80;78.40
20337;DHT22;10326;53.660;10.200;2023-05-07T04:16:03;12.80;78.30
20337;DHT22;10326;53.660;10.200;2023-05-07T04:18:34;12.80;78.40
20337;DHT22;10326;53.660;10.200;2023-05-07T04:21:01;12.80;78.30
20337;DHT22;10326;53.660;10.200;2023-05-07T04:23:28;12.80;78.40
20337;DHT22;10326;53.660;10.200;2023-05-07T04:25:58;12.80;78.40
20337;DHT22;10326;53.660;10.200;2023-05-07T04:28:36;12.80;78.40
20337;DHT22;10326;53.660;10.200;2023-05-07T04:31:03;12.80;78.40
20337;DHT22;10326;53.660;10.200;2023-05-07T04:33:33;12.80;78.30
20337;DHT22;10326;53.660;10.200;2023-05-07T04:36:02;12.80;78.30
20337;DHT22;10326;53.660;10.200;2023-05-07T04:38:33;12.80;78.30
20337;DHT22;10326;53.660;10.200;2023-05-07T04:41:03;12.80;78.30
20337;DHT22;10326;53.660;10.200;2023-05-07T04:43:33;12.80;78.20
20337;DHT22;10326;53.660;10.200;2023-05-07T04:46:02;12.80;78.20
20337;DHT22;10326;53.660;10.200;2023-05-07T04:48:30;12.80;78.10
20337;DHT22;10326;53.660;10.200;2023-05-07T04:50:59;12.80;78.10
20337;DHT22;10326;53.660;10.200;2023-05-07T04:53:26;12.80;78.10
20337;DHT22;10326;53.660;10.200;2023-05-07T04:55:55;12.80;78.20
20337;DHT22;10326;53.660;10.200;2023-05-07T04:58:24;12.80;78.30
20337;DHT22;10326;53.660;10.200;2023-05-07T05:00:53;12.80;78.30
20337;DHT22;10326;53.660;10.200;2023-05-07T05:03:22;12.80;78.30
20337;DHT22;10326;53.660;10.200;2023-05-07T05:05:49;12.80;78.30
20337;DHT22;10326;53.660;10.200;2023-05-07T05:08:17;12.80;78.30
20337;DHT22;10326;53.660;10.200;2023-05-07T05:10:45;12.90;78.40
20337;DHT22;10326;53.660;10.200;2023-05-07T05:13:14;12.90;78.30
20337;DHT22;10326;53.660;10.200;2023-05-07T05:15:42;12.90;78.30
20337;DHT22;10326;53.660;10.200;2023-05-07T05:18:12;12.90;78.20
20337;DHT22;10326;53.660;10.200;2023-05-07T05:20:39;12.90;78.20
20337;DHT22;10326;53.660;10.200;2023-05-07T05:23:07;12.90;78.20
20337;DHT22;10326;53.660;10.200;2023-05-07T05:25:35;12.90;78.30
20337;DHT22;10326;53.660;10.200;2023-05-07T05:28:03;12.90;78.40
20337;DHT22;10326;53.660;10.200;2023-05-07T05:30:33;12.90;78.50
20337;DHT22;10326;53.660;10.200;2023-05-07T05:33:01;12.90;78.50
20337;DHT22;10326;53.660;10.200;2023-05-07T05:35:30;12.90;78.50
20337;DHT22;10326;53.660;10.200;2023-05-07T05:38:02;12.90;78.30
20337;DHT22;10326;53.660;10.200;2023-05-07T05:40:29;12.90;78.30
20337;DHT22;10326;53.660;10.200;2023-05-07T05:42:57;12.90;78.40
20337;DHT22;10326;53.660;10.200;2023-05-07T05:45:25;12.90;78.30
20337;DHT22;10326;53.660;10.200;2023-05-07T05:47:52;12.90;78.30
20337;DHT22;10326;53.660;10.200;2023-05-07T05:50:19;12.90;78.30
20337;DHT22;10326;53.660;10.200;2023-05-07T05:52:48;12.90;78.30
20337;DHT22;10326;53.660;10.200;2023-05-07T05:55:17;12.90;78.40
20337;DHT22;10326;53.660;10.200;2023-05-07T05:57:46;13.00;78.40
20337;DHT22;10326;53.660;10.200;2023-05-07T06:00:14;13.00;78.40
20337;DHT22;10326;53.660;10.200;2023-05-07T06:02:44;13.00;78.50
20337;DHT22;10326;53.660;10.200;2023-05-07T06:05:17;13.00;78.50
20337;DHT22;10326;53.660;10.200;2023-05-07T06:07:46;13.00;78.40
20337;DHT22;10326;53.660;10.200;2023-05-07T06:10:15;13.10;78.40
20337;DHT22;10326;53.660;10.200;2023-05-07T06:12:43;13.10;78.40
20337;DHT22;10326;53.660;10.200;2023-05-07T06:15:10;13.10;78.40
20337;DHT22;10326;53.660;10.200;2023-05-07T06:17:38;13.10;78.40
20337;DHT22;10326;53.660;10.200;2023-05-07T06:20:07;13.10;78.40
20337;DHT22;10326;53.660;10.200;2023-05-07T06:22:35;13.10;78.30
20337;DHT22;10326;53.660;10.200;2023-05-07T06:25:03;13.10;78.30
20337;DHT22;10326;53.660;10.200;2023-05-07T06:27:33;13.20;78.30
20337;DHT22;10326;53.660;10.200;2023-05-07T06:30:00;13.20;78.20
20337;DHT22;10326;53.660;10.200;2023-05-07T06:32:29;13.20;78.30
20337;DHT22;10326;53.660;10.200;2023-05-07T06:34:56;13.30;78.30
20337;DHT22;10326;53.660;10.200;2023-05-07T06:37:23;13.30;78.30
20337;DHT22;10326;53.660;10.200;2023-05-07T06:39:54;13.30;78.30
20337;DHT22;10326;53.660;10.200;2023-05-07T06:42:22;13.30;78.20
20337;DHT22;10326;53.660;10.200;2023-05-07T06:44:51;13.40;78.00
20337;DHT22;10326;53.660;10.200;2023-05-07T06:47:19;13.40;77.80
20337;DHT22;10326;53.660;10.200;2023-05-07T06:49:50;13.40;77.80
20337;DHT22;10326;53.660;10.200;2023-05-07T06:52:20;13.40;77.70
20337;DHT22;10326;53.660;10.200;2023-05-07T06:54:49;13.40;77.60
20337;DHT22;10326;53.660;10.200;2023-05-07T06:57:19;13.40;77.60
20337;DHT22;10326;53.660;10.200;2023-05-07T06:59:46;13.40;77.70
20337;DHT22;10326;53.660;10.200;2023-05-07T07:02:15;13.40;77.80
20337;DHT22;10326;53.660;10.200;2023-05-07T07:04:42;13.50;77.90
20337;DHT22;10326;53.660;10.200;2023-05-07T07:07:11;13.50;77.80
20337;DHT22;10326;53.660;10.200;2023-05-07T07:09:39;13.50;77.70
20337;DHT22;10326;53.660;10.200;2023-05-07T07:12:08;13.50;77.90
20337;DHT22;10326;53.660;10.200;2023-05-07T07:14:38;13.50;77.90
20337;DHT22;10326;53.660;10.200;2023-05-07T07:17:05;13.60;77.80
20337;DHT22;10326;53.660;10.200;2023-05-07T07:19:35;13.60;77.70
20337;DHT22;10326;53.660;10.200;2023-05-07T07:22:03;13.60;77.60
20337;DHT22;10326;53.660;10.200;2023-05-07T07:24:31;13.70;77.50
20337;DHT22;10326;53.660;10.200;2023-05-07T07:27:02;13.70;77.40
20337;DHT22;10326;53.660;10.200;2023-05-07T07:29:33;13.70;77.40
20337;DHT22;10326;53.660;10.200;2023-05-07T07:32:01;13.70;77.30
20337;DHT22;10326;53.660;10.200;2023-05-07T07:34:28;13.70;77.20
20337;DHT22;10326;53.660;10.200;2023-05-07T07:36:58;13.70;77.20
20337;DHT22;10326;53.660;10.200;2023-05-07T07:39:31;13.70;77.20
20337;DHT22;10326;53.660;10.200;2023-05-07T07:41:59;13.70;78.00
20337;DHT22;10326;53.660;10.200;2023-05-07T07:44:29;13.70;77.20
20337;DHT22;10326;53.660;10.200;2023-05-07T07:47:00;13.70;77.00
20337;DHT22;10326;53.660;10.200;2023-05-07T07:49:28;13.70;77.10
20337;DHT22;10326;53.660;10.200;2023-05-07T07:51:59;13.80;77.10
20337;DHT22;10326;53.660;10.200;2023-05-07T07:54:27;13.70;77.10
20337;DHT22;10326;53.660;10.200;2023-05-07T07:56:55;13.70;77.10
20337;DHT22;10326;53.660;10.200;2023-05-07T07:59:23;13.80;77.00
20337;DHT22;10326;53.660;10.200;2023-05-07T08:01:50;13.80;77.00
20337;DHT22;10326;53.660;10.200;2023-05-07T08:04:21;13.80;77.10
20337;DHT22;10326;53.660;10.200;2023-05-07T08:06:49;13.80;77.20
20337;DHT22;10326;53.660;10.200;2023-05-07T08:09:19;13.80;77.20
20337;DHT22;10326;53.660;10.200;2023-05-07T08:11:47;13.90;77.50
20337;DHT22;10326;53.660;10.200;2023-05-07T08:14:15;13.90;77.00
20337;DHT22;10326;53.660;10.200;2023-05-07T08:16:45;13.90;77.00
20337;DHT22;10326;53.660;10.200;2023-05-07T08:19:12;14.00;77.40
20337;DHT22;10326;53.660;10.200;2023-05-07T08:21:40;13.90;76.80
20337;DHT22;10326;53.660;10.200;2023-05-07T08:24:10;14.00;77.10
20337;DHT22;10326;53.660;10.200;2023-05-07T08:26:39;14.00;77.00
20337;DHT22;10326;53.660;10.200;2023-05-07T08:29:07;14.00;77.00
20337;DHT22;10326;53.660;10.200;2023-05-07T08:31:34;14.00;77.00
20337;DHT22;10326;53.660;10.200;2023-05-07T08:34:03;14.00;76.90
20337;DHT22;10326;53.660;10.200;2023-05-07T08:36:31;14.10;77.00
20337;DHT22;10326;53.660;10.200;2023-05-07T08:38:59;14.00;77.10
20337;DHT22;10326;53.660;10.200;2023-05-07T08:41:27;14.10;77.20
20337;DHT22;10326;53.660;10.200;2023-05-07T08:43:58;14.10;77.90
20337;DHT22;10326;53.660;10.200;2023-05-07T08:46:31;14.20;77.20
20337;DHT22;10326;53.660;10.200;2023-05-07T08:48:59;14.20;76.80
20337;DHT22;10326;53.660;10.200;2023-05-07T08:51:27;14.30;76.90
20337;DHT22;10326;53.660;10.200;2023-05-07T08:53:54;14.30;76.80
20337;DHT22;10326;53.660;10.200;2023-05-07T08:56:27;14.40;76.90
20337;DHT22;10326;53.660;10.200;2023-05-07T08:58:56;14.40;76.80
20337;DHT22;10326;53.660;10.200;2023-05-07T09:01:26;14.40;76.70
20337;DHT22;10326;53.660;10.200;2023-05-07T09:03:55;14.50;76.70
20337;DHT22;10326;53.660;10.200;2023-05-07T09:06:23;14.50;76.50
20337;DHT22;10326;53.660;10.200;2023-05-07T09:08:53;14.50;76.30
20337;DHT22;10326;53.660;10.200;2023-05-07T09:11:25;14.50;76.30
20337;DHT22;10326;53.660;10.200;2023-05-07T09:13:57;14.50;76.30
20337;DHT22;10326;53.660;10.200;2023-05-07T09:16:29;14.50;76.70
20337;DHT22;10326;53.660;10.200;2023-05-07T09:19:00;14.60;76.30
20337;DHT22;10326;53.660;10.200;2023-05-07T09:21:27;14.60;76.40
20337;DHT22;10326;53.660;10.200;2023-05-07T09:23:57;14.60;76.50
20337;DHT22;10326;53.660;10.200;2023-05-07T09:26:32;14.60;76.50
20337;DHT22;10326;53.660;10.200;2023-05-07T09:29:02;14.70;76.20
20337;DHT22;10326;53.660;10.200;2023-05-07T09:31:29;14.70;76.20
20337;DHT22;10326;53.660;10.200;2023-05-07T09:33:57;14.70;76.10
20337;DHT22;10326;53.660;10.200;2023-05-07T09:36:29;14.80;76.40
20337;DHT22;10326;53.660;10.200;2023-05-07T09:38:59;14.80;76.20
20337;DHT22;10326;53.660;10.200;2023-05-07T09:41:26;14.80;76.10
20337;DHT22;10326;53.660;10.200;2023-05-07T09:44:09;14.90;76.60
20337;DHT22;10326;53.660;10.200;2023-05-07T09:46:43;14.90;75.70
20337;DHT22;10326;53.660;10.200;2023-05-07T09:49:23;15.00;75.70
20337;DHT22;10326;53.660;10.200;2023-05-07T09:52:00;15.00;75.50
20337;DHT22;10326;53.660;10.200;2023-05-07T09:54:31;15.00;75.50
20337;DHT22;10326;53.660;10.200;2023-05-07T09:57:01;15.00;75.20
20337;DHT22;10326;53.660;10.200;2023-05-07T09:59:32;15.00;75.00
20337;DHT22;10326;53.660;10.200;2023-05-07T10:02:03;15.10;75.30
20337;DHT22;10326;53.660;10.200;2023-05-07T10:04:37;15.10;75.40
20337;DHT22;10326;53.660;10.200;2023-05-07T10:07:04;15.10;75.40
20337;DHT22;10326;53.660;10.200;2023-05-07T10:09:34;15.10;75.30
20337;DHT22;10326;53.660;10.200;2023-05-07T10:12:06;15.20;75.60
20337;DHT22;10326;53.660;10.200;2023-05-07T10:14:36;15.20;75.60
20337;DHT22;10326;53.660;10.200;2023-05-07T10:17:05;15.20;75.40
20337;DHT22;10326;53.660;10.200;2023-05-07T10:19:32;15.30;75.20
20337;DHT22;10326;53.660;10.200;2023-05-07T10:22:05;15.30;75.20
20337;DHT22;10326;53.660;10.200;2023-05-07T10:24:37;15.40;75.50
20337;DHT22;10326;53.660;10.200;2023-05-07T10:27:12;15.40;76.10
20337;DHT22;10326;53.660;10.200;2023-05-07T10:29:51;15.50;76.60
20337;DHT22;10326;53.660;10.200;2023-05-07T10:32:33;15.60;76.10
20337;DHT22;10326;53.660;10.200;2023-05-07T10:35:10;15.70;77.20
20337;DHT22;10326;53.660;10.200;2023-05-07T10:37:41;15.80;76.10
20337;DHT22;10326;53.660;10.200;2023-05-07T10:40:10;15.90;75.80
20337;DHT22;10326;53.660;10.200;2023-05-07T10:42:38;16.00;76.30
20337;DHT22;10326;53.660;10.200;2023-05-07T10:45:14;16.10;76.00
20337;DHT22;10326;53.660;10.200;2023-05-07T10:48:08;16.10;75.00
20337;DHT22;10326;53.660;10.200;2023-05-07T10:50:37;16.20;76.10
20337;DHT22;10326;53.660;10.200;2023-05-07T10:53:22;16.30;76.10
20337;DHT22;10326;53.660;10.200;2023-05-07T10:56:25;16.50;75.30
20337;DHT22;10326;53.660;10.200;2023-05-07T10:59:35;16.60;74.80
20337;DHT22;10326;53.660;10.200;2023-05-07T11:02:16;16.70;74.50
20337;DHT22;10326;53.660;10.200;2023-05-07T11:05:18;16.70;74.50
20337;DHT22;10326;53.660;10.200;2023-05-07T11:07:54;16.80;74.00
20337;DHT22;10326;53.660;10.200;2023-05-07T11:10:22;16.90;73.90
20337;DHT22;10326;53.660;10.200;2023-05-07T11:12:56;16.90;74.60
20337;DHT22;10326;53.660;10.200;2023-05-07T11:15:43;17.00;75.30
20337;DHT22;10326;53.660;10.200;2023-05-07T11:18:47;17.00;73.60
20337;DHT22;10326;53.660;10.200;2023-05-07T11:21:33;17.10;74.00
20337;DHT22;10326;53.660;10.200;2023-05-07T11:24:27;17.20;73.60
20337;DHT22;10326;53.660;10.200;2023-05-07T11:26:59;17.30;74.20
20337;DHT22;10326;53.660;10.200;2023-05-07T11:29:27;17.30;74.30
20337;DHT22;10326;53.660;10.200;2023-05-07T11:32:01;17.40;74.10
20337;DHT22;10326;53.660;10.200;2023-05-07T11:34:36;17.50;74.40
20337;DHT22;10326;53.660;10.200;2023-05-07T11:37:03;17.60;73.60
20337;DHT22;10326;53.660;10.200;2023-05-07T11:39:46;17.60;74.00
20337;DHT22;10326;53.660;10.200;2023-05-07T11:42:27;17.80;74.30
20337;DHT22;10326;53.660;10.200;2023-05-07T11:44:54;17.90;73.50
20337;DHT22;10326;53.660;10.200;2023-05-07T11:47:22;17.90;73.60
20337;DHT22;10326;53.660;10.200;2023-05-07T11:49:52;18.00;73.30
20337;DHT22;10326;53.660;10.200;2023-05-07T11:52:21;18.10;72.50
20337;DHT22;10326;53.660;10.200;2023-05-07T11:54:50;18.20;72.80
20337;DHT22;10326;53.660;10.200;2023-05-07T11:57:18;18.20;72.50
20337;DHT22;10326;53.660;10.200;2023-05-07T11:59:45;18.30;72.80
20337;DHT22;10326;53.660;10.200;2023-05-07T12:02:14;18.30;72.60
20337;DHT22;10326;53.660;10.200;2023-05-07T12:04:42;18.40;72.10
20337;DHT22;10326;53.660;10.200;2023-05-07T12:07:15;18.50;72.20
20337;DHT22;10326;53.660;10.200;2023-05-07T12:09:43;18.50;71.70
20337;DHT22;10326;53.660;10.200;2023-05-07T12:12:11;18.60;72.40
20337;DHT22;10326;53.660;10.200;2023-05-07T12:14:41;18.70;71.80
20337;DHT22;10326;53.660;10.200;2023-05-07T12:17:10;18.80;71.60
20337;DHT22;10326;53.660;10.200;2023-05-07T12:19:39;18.90;71.10
20337;DHT22;10326;53.660;10.200;2023-05-07T12:22:08;18.90;71.70
20337;DHT22;10326;53.660;10.200;2023-05-07T12:24:47;19.00;71.40
20337;DHT22;10326;53.660;10.200;2023-05-07T12:27:16;19.10;70.80
20337;DHT22;10326;53.660;10.200;2023-05-07T12:29:44;19.10;71.60
20337;DHT22;10326;53.660;10.200;2023-05-07T12:32:13;19.20;71.50
20337;DHT22;10326;53.660;10.200;2023-05-07T12:34:42;19.30;71.70
20337;DHT22;10326;53.660;10.200;2023-05-07T12:37:10;19.30;71.60
20337;DHT22;10326;53.660;10.200;2023-05-07T12:39:38;19.40;70.80
20337;DHT22;10326;53.660;10.200;2023-05-07T12:42:06;19.50;71.00
20337;DHT22;10326;53.660;10.200;2023-05-07T12:44:34;19.60;70.20
20337;DHT22;10326;53.660;10.200;2023-05-07T12:47:02;19.60;70.00
20337;DHT22;10326;53.660;10.200;2023-05-07T12:49:30;19.70;70.30
20337;DHT22;10326;53.660;10.200;2023-05-07T12:51:58;19.80;70.50
20337;DHT22;10326;53.660;10.200;2023-05-07T12:54:30;19.90;69.90
20337;DHT22;10326;53.660;10.200;2023-05-07T12:57:01;20.00;69.60
20337;DHT22;10326;53.660;10.200;2023-05-07T12:59:36;20.10;70.30
20337;DHT22;10326;53.660;10.200;2023-05-07T13:02:06;20.20;69.50
20337;DHT22;10326;53.660;10.200;2023-05-07T13:04:35;20.30;69.40
20337;DHT22;10326;53.660;10.200;2023-05-07T13:07:03;20.40;69.30
20337;DHT22;10326;53.660;10.200;2023-05-07T13:09:31;20.50;68.90
20337;DHT22;10326;53.660;10.200;2023-05-07T13:11:59;20.60;69.20
20337;DHT22;10326;53.660;10.200;2023-05-07T13:14:27;20.70;68.50
20337;DHT22;10326;53.660;10.200;2023-05-07T13:16:56;20.80;68.00
20337;DHT22;10326;53.660;10.200;2023-05-07T13:19:23;20.90;66.80
20337;DHT22;10326;53.660;10.200;2023-05-07T13:21:50;21.00;66.80
20337;DHT22;10326;53.660;10.200;2023-05-07T13:24:17;21.00;66.40
20337;DHT22;10326;53.660;10.200;2023-05-07T13:26:45;21.00;65.90
20337;DHT22;10326;53.660;10.200;2023-05-07T13:29:12;21.00;65.70
20337;DHT22;10326;53.660;10.200;2023-05-07T13:31:41;21.00;65.40
20337;DHT22;10326;53.660;10.200;2023-05-07T13:34:10;21.10;64.50
20337;DHT22;10326;53.660;10.200;2023-05-07T13:36:38;21.10;66.00
20337;DHT22;10326;53.660;10.200;2023-05-07T13:39:07;21.10;65.70
20337;DHT22;10326;53.660;10.200;2023-05-07T13:41:35;21.20;66.50
20337;DHT22;10326;53.660;10.200;2023-05-07T13:44:02;21.20;65.20
20337;DHT22;10326;53.660;10.200;2023-05-07T13:46:30;21.30;64.80
20337;DHT22;10326;53.660;10.200;2023-05-07T13:48:57;21.40;65.10
20337;DHT22;10326;53.660;10.200;2023-05-07T13:51:25;21.50;64.30
20337;DHT22;10326;53.660;10.200;2023-05-07T13:53:52;21.50;63.70
20337;DHT22;10326;53.660;10.200;2023-05-07T13:56:20;21.60;64.10
20337;DHT22;10326;53.660;10.200;2023-05-07T13:58:47;21.70;63.40
20337;DHT22;10326;53.660;10.200;2023-05-07T14:01:14;21.80;63.50
20337;DHT22;10326;53.660;10.200;2023-05-07T14:03:41;21.80;63.20
20337;DHT22;10326;53.660;10.200;2023-05-07T14:06:09;21.90;62.10
20337;DHT22;10326;53.660;10.200;2023-05-07T14:08:37;22.00;61.90
20337;DHT22;10326;53.660;10.200;2023-05-07T14:11:05;21.90;60.70
20337;DHT22;10326;53.660;10.200;2023-05-07T14:13:32;22.00;61.10
20337;DHT22;10326;53.660;10.200;2023-05-07T14:16:01;22.00;60.80
20337;DHT22;10326;53.660;10.200;2023-05-07T14:18:28;21.90;59.90
20337;DHT22;10326;53.660;10.200;2023-05-07T14:20:55;22.00;60.90
20337;DHT22;10326;53.660;10.200;2023-05-07T14:23:22;22.00;61.10
20337;DHT22;10326;53.660;10.200;2023-05-07T14:25:53;22.00;60.10
20337;DHT22;10326;53.660;10.200;2023-05-07T14:28:21;22.10;59.50
20337;DHT22;10326;53.660;10.200;2023-05-07T14:30:50;22.10;59.70
20337;DHT22;10326;53.660;10.200;2023-05-07T14:33:17;22.20;59.60
20337;DHT22;10326;53.660;10.200;2023-05-07T14:35:44;22.20;59.60
20337;DHT22;10326;53.660;10.200;2023-05-07T14:38:14;22.30;59.30
20337;DHT22;10326;53.660;10.200;2023-05-07T14:40:41;22.30;59.20
20337;DHT22;10326;53.660;10.200;2023-05-07T14:43:09;22.40;59.30
20337;DHT22;10326;53.660;10.200;2023-05-07T14:45:37;22.30;58.50
20337;DHT22;10326;53.660;10.200;2023-05-07T14:48:04;22.40;59.20
20337;DHT22;10326;53.660;10.200;2023-05-07T14:50:32;22.50;60.10
20337;DHT22;10326;53.660;10.200;2023-05-07T14:52:59;22.50;59.30
20337;DHT22;10326;53.660;10.200;2023-05-07T14:55:26;22.60;59.20
20337;DHT22;10326;53.660;10.200;2023-05-07T14:57:55;22.70;58.40
20337;DHT22;10326;53.660;10.200;2023-05-07T15:00:24;22.70;57.80
20337;DHT22;10326;53.660;10.200;2023-05-07T15:02:51;22.60;57.60
20337;DHT22;10326;53.660;10.200;2023-05-07T15:05:18;22.60;57.60
20337;DHT22;10326;53.660;10.200;2023-05-07T15:07:45;22.50;57.40
20337;DHT22;10326;53.660;10.200;2023-05-07T15:10:13;22.40;57.00
20337;DHT22;10326;53.660;10.200;2023-05-07T15:12:40;22.40;57.00
20337;DHT22;10326;53.660;10.200;2023-05-07T15:15:08;22.20;56.70
20337;DHT22;10326;53.660;10.200;2023-05-07T15:17:37;22.10;56.80
20337;DHT22;10326;53.660;10.200;2023-05-07T15:20:06;22.00;56.40
20337;DHT22;10326;53.660;10.200;2023-05-07T15:22:33;21.90;56.50
20337;DHT22;10326;53.660;10.200;2023-05-07T15:25:01;21.80;56.70
20337;DHT22;10326;53.660;10.200;2023-05-07T15:27:29;21.70;57.20
20337;DHT22;10326;53.660;10.200;2023-05-07T15:29:57;21.60;57.10